createdAt,value
2017-09-16T00:00:06.985Z,9.40
2017-09-16T00:02:34.585Z,9.50
2017-09-16T00:05:02.145Z,9.70
2017-09-16T00:07:29.702Z,9.90
2017-09-16T00:09:57.298Z,9.90
2017-09-16T00:12:24.897Z,9.90
2017-09-16T00:14:52.483Z,9.90
2017-09-16T00:17:20.837Z,9.90
2017-09-16T00:19:48.462Z,9.90
2017-09-16T00:22:16.043Z,13.00
2017-09-16T00:24:43.599Z,9.90
2017-09-16T00:27:11.209Z,9.90
2017-09-16T00:29:39.537Z,9.90
2017-09-16T00:32:07.109Z,9.90
2017-09-16T00:34:34.698Z,9.50
2017-09-16T00:37:03.027Z,9.40
2017-09-16T00:39:30.629Z,9.40
2017-09-16T00:41:58.967Z,9.60
2017-09-16T00:44:26.524Z,9.50
2017-09-16T00:46:54.114Z,9.50
2017-09-16T00:49:21.710Z,9.10
2017-09-16T00:51:49.270Z,9.30
2017-09-16T00:54:16.817Z,9.50
2017-09-16T00:56:45.200Z,9.60
2017-09-16T00:59:13.534Z,9.60
2017-09-16T01:01:41.091Z,9.60
2017-09-16T01:04:08.686Z,9.60
2017-09-16T01:06:37.009Z,9.60
2017-09-16T01:09:04.611Z,9.60
2017-09-16T01:11:32.178Z,9.60
2017-09-16T01:13:59.789Z,9.30
2017-09-16T01:16:27.366Z,9.10
2017-09-16T01:18:54.944Z,9.20
2017-09-16T01:21:22.563Z,9.30
2017-09-16T01:23:50.140Z,9.20
2017-09-16T01:26:17.702Z,9.30
2017-09-16T01:28:45.298Z,9.30
2017-09-16T01:31:12.846Z,9.10
2017-09-16T01:33:40.400Z,9.20
2017-09-16T01:36:07.992Z,9.30
2017-09-16T01:38:36.309Z,9.10
2017-09-16T01:41:03.970Z,9.10
2017-09-16T01:43:31.525Z,9.20
2017-09-16T01:45:59.085Z,9.20
2017-09-16T01:48:26.681Z,9.10
2017-09-16T01:50:54.247Z,9.10
2017-09-16T01:53:21.801Z,9.00
2017-09-16T01:55:49.418Z,9.10
2017-09-16T01:58:17.002Z,9.00
2017-09-16T02:00:44.554Z,9.10
2017-09-16T02:03:12.157Z,9.00
2017-09-16T02:05:39.781Z,8.90
2017-09-16T02:08:07.370Z,8.90
2017-09-16T02:10:34.905Z,8.80
2017-09-16T02:13:02.506Z,8.90
2017-09-16T02:15:30.888Z,8.70
2017-09-16T02:17:58.442Z,8.70
2017-09-16T02:20:26.045Z,8.80
2017-09-16T02:22:54.364Z,8.90
2017-09-16T02:25:21.965Z,8.90
2017-09-16T02:27:50.381Z,8.60
2017-09-16T02:30:17.925Z,8.60
2017-09-16T02:32:45.548Z,8.70
2017-09-16T02:35:13.104Z,8.80
2017-09-16T02:37:40.661Z,8.80
2017-09-16T02:40:08.303Z,8.80
2017-09-16T02:42:35.880Z,8.40
2017-09-16T02:45:03.442Z,8.40
2017-09-16T02:47:31.063Z,8.40
2017-09-16T02:49:58.617Z,8.50
2017-09-16T02:52:26.190Z,8.60
2017-09-16T02:54:53.777Z,8.60
2017-09-16T02:57:21.346Z,8.60
2017-09-16T02:59:48.984Z,8.60
2017-09-16T03:02:16.574Z,8.60
2017-09-16T03:04:44.124Z,8.60
2017-09-16T03:07:11.738Z,8.50
2017-09-16T03:09:39.340Z,8.60
2017-09-16T03:12:06.899Z,8.70
2017-09-16T03:14:34.505Z,8.50
2017-09-16T03:17:02.839Z,8.90
2017-09-16T03:19:30.403Z,8.20
2017-09-16T03:21:58.018Z,8.30
2017-09-16T03:24:25.580Z,8.40
2017-09-16T03:26:53.165Z,8.50
2017-09-16T03:29:20.718Z,8.50
2017-09-16T03:31:48.314Z,8.40
2017-09-16T03:34:15.872Z,8.30
2017-09-16T03:36:43.479Z,8.40
2017-09-16T03:39:11.037Z,8.20
2017-09-16T03:41:39.357Z,8.20
2017-09-16T03:44:06.964Z,8.20
2017-09-16T03:46:35.290Z,8.30
2017-09-16T03:49:02.849Z,8.20
2017-09-16T03:51:30.441Z,8.30
2017-09-16T03:53:57.998Z,8.20
2017-09-16T03:56:25.539Z,8.30
2017-09-16T03:58:53.137Z,8.10
2017-09-16T04:01:33.384Z,7.60
2017-09-16T04:04:01.756Z,7.70
2017-09-16T04:06:29.338Z,7.70
2017-09-16T04:08:57.654Z,7.90
2017-09-16T04:11:25.246Z,7.90
2017-09-16T04:13:52.797Z,7.80
2017-09-16T04:16:20.397Z,8.00
2017-09-16T04:18:48.727Z,8.20
2017-09-16T04:21:17.082Z,8.20
2017-09-16T04:23:44.677Z,8.20
2017-09-16T04:26:12.236Z,8.20
2017-09-16T04:28:39.783Z,8.10
2017-09-16T04:31:07.386Z,8.10
2017-09-16T04:33:34.973Z,8.10
2017-09-16T04:36:02.529Z,8.00
2017-09-16T04:38:30.887Z,8.00
2017-09-16T04:40:59.329Z,7.60
2017-09-16T04:43:26.884Z,7.60
2017-09-16T04:45:54.469Z,7.40
2017-09-16T04:48:22.135Z,7.30
2017-09-16T04:50:49.696Z,5.70
2017-09-16T04:53:17.265Z,7.30
2017-09-16T04:55:44.865Z,7.40
2017-09-16T04:58:12.429Z,7.70
2017-09-16T05:00:40.037Z,7.80
2017-09-16T05:03:07.596Z,7.90
2017-09-16T05:05:35.145Z,7.90
2017-09-16T05:08:02.845Z,7.90
2017-09-16T05:10:31.219Z,8.00
2017-09-16T05:12:58.769Z,7.90
2017-09-16T05:15:26.333Z,7.90
2017-09-16T05:17:54.729Z,7.90
2017-09-16T05:20:23.052Z,7.70
2017-09-16T05:22:50.614Z,7.70
2017-09-16T05:25:18.206Z,7.70
2017-09-16T05:27:45.802Z,7.60
2017-09-16T05:30:13.362Z,7.70
2017-09-16T05:32:40.957Z,7.80
2017-09-16T05:35:08.550Z,7.80
2017-09-16T05:37:36.167Z,7.80
2017-09-16T05:40:03.732Z,7.70
2017-09-16T05:42:31.362Z,7.90
2017-09-16T05:44:58.936Z,8.00
2017-09-16T05:47:26.503Z,8.00
2017-09-16T05:49:54.112Z,8.00
2017-09-16T05:52:21.678Z,8.10
2017-09-16T05:54:49.255Z,8.10
2017-09-16T05:57:17.613Z,8.20
2017-09-16T05:59:45.164Z,8.20
2017-09-16T06:02:12.780Z,8.30
2017-09-16T06:04:40.341Z,8.30
2017-09-16T06:07:07.909Z,8.10
2017-09-16T06:09:35.519Z,8.10
2017-09-16T06:12:03.970Z,8.50
2017-09-16T06:14:31.569Z,8.50
2017-09-16T06:16:59.887Z,8.70
2017-09-16T06:19:27.542Z,8.70
2017-09-16T06:21:55.097Z,8.60
2017-09-16T06:24:22.662Z,8.40
2017-09-16T06:26:50.261Z,8.60
2017-09-16T06:29:17.878Z,8.80
2017-09-16T06:31:45.429Z,8.60
2017-09-16T06:34:13.761Z,8.70
2017-09-16T06:36:41.368Z,8.70
2017-09-16T06:39:09.699Z,8.80
2017-09-16T06:41:37.317Z,8.80
2017-09-16T06:44:04.874Z,8.80
2017-09-16T06:46:32.444Z,8.90
2017-09-16T06:49:00.041Z,8.90
2017-09-16T06:51:27.681Z,9.00
2017-09-16T06:53:55.237Z,8.90
2017-09-16T06:56:22.820Z,8.90
2017-09-16T06:58:50.384Z,9.10
2017-09-16T07:01:18.006Z,9.30
2017-09-16T07:03:45.566Z,9.50
2017-09-16T07:06:13.137Z,9.50
2017-09-16T07:08:40.737Z,9.50
2017-09-16T07:11:08.326Z,9.70
2017-09-16T07:13:36.702Z,10.10
2017-09-16T07:16:05.110Z,10.30
2017-09-16T07:18:32.744Z,10.20
2017-09-16T07:21:01.119Z,10.80
2017-09-16T07:23:28.706Z,10.80
2017-09-16T07:25:56.312Z,10.90
2017-09-16T07:28:23.937Z,11.20
2017-09-16T07:30:51.501Z,11.20
2017-09-16T07:33:19.073Z,11.10
2017-09-16T07:35:46.704Z,11.30
2017-09-16T07:38:14.266Z,11.60
2017-09-16T07:40:42.594Z,11.60
2017-09-16T07:43:10.239Z,11.60
2017-09-16T07:45:37.812Z,11.60
2017-09-16T07:48:05.371Z,11.80
2017-09-16T07:50:32.971Z,11.80
2017-09-16T07:53:01.327Z,12.30
2017-09-16T07:55:28.930Z,12.30
2017-09-16T07:57:56.507Z,12.30
2017-09-16T08:00:24.123Z,12.40
2017-09-16T08:02:52.472Z,12.40
2017-09-16T08:05:20.023Z,12.40
2017-09-16T08:07:47.670Z,12.70
2017-09-16T08:10:15.256Z,12.30
2017-09-16T08:12:42.831Z,12.60
2017-09-16T08:15:10.438Z,12.90
2017-09-16T08:17:38.002Z,12.80
2017-09-16T08:20:05.600Z,12.70
2017-09-16T08:22:33.217Z,12.70
2017-09-16T08:25:00.784Z,12.80
2017-09-16T08:27:28.382Z,12.70
2017-09-16T08:29:56.007Z,12.70
2017-09-16T08:32:23.566Z,12.90
2017-09-16T08:34:51.148Z,13.20
2017-09-16T08:37:18.751Z,13.30
2017-09-16T08:39:46.302Z,13.40
2017-09-16T08:42:13.933Z,13.60
2017-09-16T08:44:41.562Z,13.60
2017-09-16T08:47:09.893Z,13.90
2017-09-16T08:49:37.477Z,13.80
2017-09-16T08:52:05.093Z,13.90
2017-09-16T08:54:32.688Z,14.20
2017-09-16T08:57:00.254Z,14.40
2017-09-16T08:59:28.645Z,14.80
2017-09-16T09:01:57.077Z,14.60
2017-09-16T09:04:24.709Z,14.60
2017-09-16T09:06:52.282Z,14.80
2017-09-16T09:09:19.883Z,15.30
2017-09-16T09:11:47.461Z,15.80
2017-09-16T09:14:15.084Z,16.20
2017-09-16T09:16:42.699Z,17.00
2017-09-16T09:19:11.017Z,15.80
2017-09-16T09:21:38.568Z,15.70
2017-09-16T09:24:06.943Z,16.20
2017-09-16T09:26:34.505Z,16.20
2017-09-16T09:29:02.105Z,16.00
2017-09-16T09:31:29.723Z,17.40
2017-09-16T09:33:57.289Z,16.90
2017-09-16T09:36:24.866Z,17.80
2017-09-16T09:38:52.469Z,18.70
2017-09-16T09:41:20.108Z,18.00
2017-09-16T09:43:47.670Z,17.90
2017-09-16T09:46:15.244Z,17.50
2017-09-16T09:48:42.829Z,17.60
2017-09-16T09:51:11.149Z,19.00
2017-09-16T09:53:38.732Z,19.00
2017-09-16T09:56:06.332Z,17.90
2017-09-16T09:58:33.940Z,17.40
2017-09-16T10:01:01.555Z,17.00
2017-09-16T10:03:29.168Z,16.70
2017-09-16T10:05:56.777Z,16.50
2017-09-16T10:08:24.347Z,17.60
2017-09-16T10:10:51.994Z,17.90
2017-09-16T10:13:20.323Z,20.50
2017-09-16T10:15:48.043Z,18.00
2017-09-16T10:18:15.638Z,18.80
2017-09-16T10:20:43.210Z,17.60
2017-09-16T10:23:10.820Z,16.90
2017-09-16T10:25:38.510Z,17.00
2017-09-16T10:28:06.960Z,17.40
2017-09-16T10:30:34.565Z,18.70
2017-09-16T10:33:02.134Z,19.40
2017-09-16T10:35:29.786Z,20.20
2017-09-16T10:37:57.394Z,21.90
2017-09-16T10:40:24.941Z,21.20
2017-09-16T10:42:52.521Z,20.50
2017-09-16T10:45:21.000Z,22.30
2017-09-16T10:47:49.334Z,22.60
2017-09-16T10:50:16.921Z,22.50
2017-09-16T10:52:44.489Z,23.20
2017-09-16T10:55:12.087Z,21.50
2017-09-16T10:57:39.671Z,22.40
2017-09-16T11:00:07.275Z,21.10
2017-09-16T11:02:34.839Z,21.50
2017-09-16T11:05:03.175Z,21.80
2017-09-16T11:07:30.768Z,21.70
2017-09-16T11:09:58.354Z,21.40
2017-09-16T11:12:26.689Z,22.40
2017-09-16T11:14:54.299Z,22.40
2017-09-16T11:17:22.617Z,21.80
2017-09-16T11:19:50.232Z,21.80
2017-09-16T11:22:18.634Z,22.50
2017-09-16T11:24:46.187Z,22.50
2017-09-16T11:27:13.754Z,22.90
2017-09-16T11:29:41.374Z,22.60
2017-09-16T11:32:09.717Z,22.90
2017-09-16T11:34:37.300Z,22.90
2017-09-16T11:37:04.930Z,21.90
2017-09-16T11:39:32.569Z,22.30
2017-09-16T11:42:00.184Z,22.90
2017-09-16T11:44:27.747Z,24.50
2017-09-16T11:46:55.310Z,24.70
2017-09-16T11:49:22.904Z,23.30
2017-09-16T11:51:50.458Z,22.80
2017-09-16T11:54:18.778Z,22.50
2017-09-16T11:56:46.385Z,22.50
2017-09-16T11:59:13.929Z,23.80
2017-09-16T12:01:41.506Z,23.70
2017-09-16T12:04:09.884Z,20.90
2017-09-16T12:06:38.205Z,21.40
2017-09-16T12:09:05.757Z,21.40
2017-09-16T12:11:33.357Z,21.10
2017-09-16T12:14:00.932Z,21.20
2017-09-16T12:16:28.544Z,21.10
2017-09-16T12:18:56.144Z,20.40
2017-09-16T12:21:23.693Z,19.90
2017-09-16T12:23:51.293Z,20.40
2017-09-16T12:26:19.662Z,19.80
2017-09-16T12:28:47.239Z,19.80
2017-09-16T12:31:15.624Z,19.90
2017-09-16T12:33:43.195Z,19.90
2017-09-16T12:36:10.756Z,19.50
2017-09-16T12:38:39.143Z,20.00
2017-09-16T12:41:06.716Z,20.00
2017-09-16T12:43:34.320Z,20.00
2017-09-16T12:46:01.892Z,20.20
2017-09-16T12:48:30.285Z,20.80
2017-09-16T12:50:57.849Z,20.80
2017-09-16T12:53:25.426Z,20.40
2017-09-16T12:55:53.030Z,21.10
2017-09-16T12:58:20.598Z,20.80
2017-09-16T13:00:48.196Z,20.90
2017-09-16T13:03:15.783Z,20.30
2017-09-16T13:05:43.348Z,19.90
2017-09-16T13:08:10.984Z,19.50
2017-09-16T13:10:38.560Z,19.50
2017-09-16T13:13:06.124Z,19.20
2017-09-16T13:15:33.840Z,19.40
2017-09-16T13:18:02.169Z,19.20
2017-09-16T13:20:29.744Z,19.20
2017-09-16T13:22:57.355Z,19.30
2017-09-16T13:25:25.683Z,18.60
2017-09-16T13:27:53.234Z,18.50
2017-09-16T13:30:20.837Z,18.90
2017-09-16T13:32:49.171Z,18.40
2017-09-16T13:35:16.743Z,18.40
2017-09-16T13:37:44.353Z,18.90
2017-09-16T13:40:12.728Z,18.70
2017-09-16T13:42:41.119Z,18.70
2017-09-16T13:45:08.682Z,18.70
2017-09-16T13:47:36.255Z,19.00
2017-09-16T13:50:03.862Z,19.10
2017-09-16T13:52:31.425Z,19.50
2017-09-16T13:54:58.994Z,19.50
2017-09-16T13:57:26.586Z,20.00
2017-09-16T13:59:54.177Z,19.90
2017-09-16T14:02:21.739Z,19.70
2017-09-16T14:04:49.326Z,19.80
2017-09-16T14:07:16.929Z,20.00
2017-09-16T14:09:44.481Z,20.10
2017-09-16T14:12:12.119Z,19.30
2017-09-16T14:14:39.737Z,19.00
2017-09-16T14:17:07.301Z,18.60
2017-09-16T14:19:35.692Z,18.40
2017-09-16T14:22:03.305Z,18.40
2017-09-16T14:24:30.864Z,18.70
2017-09-16T14:26:59.268Z,18.40
2017-09-16T14:29:26.841Z,18.40
2017-09-16T14:31:54.397Z,18.30
2017-09-16T14:34:22.021Z,18.40
2017-09-16T14:36:50.353Z,17.80
2017-09-16T14:39:17.904Z,17.80
2017-09-16T14:41:45.616Z,17.90
2017-09-16T14:44:14.006Z,17.70
2017-09-16T14:46:42.341Z,17.60
2017-09-16T14:49:09.901Z,17.60
2017-09-16T14:51:37.513Z,17.90
2017-09-16T14:54:05.081Z,17.80
2017-09-16T14:56:32.666Z,17.50
2017-09-16T14:59:00.232Z,17.60
2017-09-16T15:01:27.807Z,17.70
2017-09-16T15:03:55.416Z,17.40
2017-09-16T15:06:23.037Z,17.50
2017-09-16T15:08:50.633Z,17.40
2017-09-16T15:11:18.212Z,17.20
2017-09-16T15:13:45.829Z,17.10
2017-09-16T15:16:13.459Z,16.90
2017-09-16T15:18:41.064Z,17.00
2017-09-16T15:21:09.397Z,17.10
2017-09-16T15:23:37.011Z,17.10
2017-09-16T15:26:05.379Z,16.90
2017-09-16T15:28:32.962Z,16.90
2017-09-16T15:31:00.597Z,16.90
2017-09-16T15:33:28.937Z,16.80
2017-09-16T15:35:56.508Z,14.00
2017-09-16T15:38:24.132Z,16.50
2017-09-16T15:40:51.690Z,16.20
2017-09-16T15:43:19.320Z,15.90
2017-09-16T15:45:47.658Z,15.50
2017-09-16T15:48:15.232Z,15.50
2017-09-16T15:50:42.864Z,15.40
2017-09-16T15:53:10.431Z,15.30
2017-09-16T15:55:38.375Z,15.00
2017-09-16T15:58:05.990Z,14.60
2017-09-16T16:00:33.604Z,14.10
2017-09-16T16:03:01.205Z,14.00
2017-09-16T16:05:28.806Z,14.00
2017-09-16T16:07:57.168Z,13.90
2017-09-16T16:10:25.639Z,13.90
2017-09-16T16:12:53.233Z,13.90
2017-09-16T16:15:21.570Z,13.60
2017-09-16T16:17:49.173Z,13.60
2017-09-16T16:20:17.494Z,13.60
2017-09-16T16:22:45.050Z,13.60
2017-09-16T16:25:12.673Z,13.60
2017-09-16T16:27:40.273Z,13.40
2017-09-16T16:30:07.861Z,13.20
2017-09-16T16:32:35.551Z,13.20
2017-09-16T16:35:03.176Z,13.20
2017-09-16T16:37:30.782Z,13.10
2017-09-16T16:39:58.589Z,13.10
2017-09-16T16:42:26.192Z,13.10
2017-09-16T16:44:54.537Z,13.10
2017-09-16T16:47:22.114Z,13.10
2017-09-16T16:49:49.705Z,13.10
2017-09-16T16:52:18.025Z,13.10
2017-09-16T16:54:45.578Z,13.10
2017-09-16T16:57:13.199Z,13.10
2017-09-16T16:59:41.528Z,13.00
2017-09-16T17:02:09.098Z,13.00
2017-09-16T17:04:36.690Z,13.30
2017-09-16T17:07:05.042Z,13.50
2017-09-16T17:09:32.637Z,13.50
2017-09-16T17:12:00.963Z,13.60
2017-09-16T17:14:28.517Z,13.50
2017-09-16T17:16:56.141Z,13.70
2017-09-16T17:19:24.466Z,13.60
2017-09-16T17:21:52.025Z,13.60
2017-09-16T17:24:19.622Z,13.50
2017-09-16T17:26:47.170Z,13.50
2017-09-16T17:29:14.794Z,13.50
2017-09-16T17:31:44.295Z,13.50
2017-09-16T17:34:11.878Z,13.20
2017-09-16T17:36:39.522Z,12.70
2017-09-16T17:39:07.088Z,12.60
2017-09-16T17:41:34.700Z,12.80
2017-09-16T17:44:03.115Z,12.40
2017-09-16T17:46:30.689Z,12.40
2017-09-16T17:48:58.277Z,12.40
2017-09-16T17:51:25.886Z,12.70
2017-09-16T17:53:53.498Z,12.80
2017-09-16T17:56:21.102Z,13.00
2017-09-16T17:58:48.658Z,13.00
2017-09-16T18:01:17.042Z,12.50
2017-09-16T18:03:44.621Z,12.50
2017-09-16T18:06:12.293Z,12.80
2017-09-16T18:08:39.858Z,12.70
2017-09-16T18:11:07.483Z,12.60
2017-09-16T18:13:35.081Z,12.40
2017-09-16T18:16:02.647Z,12.50
2017-09-16T18:18:30.265Z,12.60
2017-09-16T18:20:57.850Z,12.50
2017-09-16T18:23:25.434Z,12.40
2017-09-16T18:25:53.054Z,12.40
2017-09-16T18:28:20.689Z,12.50
2017-09-16T18:30:49.121Z,12.50
2017-09-16T18:33:16.689Z,12.40
2017-09-16T18:35:44.291Z,12.40
2017-09-16T18:38:11.931Z,12.50
2017-09-16T18:40:39.522Z,12.40
2017-09-16T18:43:07.924Z,12.30
2017-09-16T18:45:35.535Z,12.30
2017-09-16T18:48:03.145Z,12.20
2017-09-16T18:50:30.729Z,12.30
2017-09-16T18:52:58.337Z,12.40
2017-09-16T18:55:25.962Z,12.40
2017-09-16T18:57:53.569Z,12.30
2017-09-16T19:00:21.154Z,12.10
2017-09-16T19:02:48.765Z,12.20
2017-09-16T19:05:16.331Z,12.30
2017-09-16T19:07:43.946Z,12.30
2017-09-16T19:10:11.551Z,12.30
2017-09-16T19:12:39.106Z,12.20
2017-09-16T19:15:06.722Z,12.10
2017-09-16T19:17:34.288Z,12.30
2017-09-16T19:20:01.890Z,12.40
2017-09-16T19:22:29.454Z,12.30
2017-09-16T19:24:57.067Z,12.40
2017-09-16T19:27:25.394Z,12.60
2017-09-16T19:29:52.951Z,12.50
2017-09-16T19:32:20.567Z,12.20
2017-09-16T19:34:48.147Z,12.20
2017-09-16T19:37:15.779Z,12.10
2017-09-16T19:39:44.218Z,12.10
2017-09-16T19:42:11.778Z,12.10
2017-09-16T19:44:39.379Z,12.30
2017-09-16T19:47:06.988Z,12.20
2017-09-16T19:49:34.593Z,12.20
2017-09-16T19:52:02.932Z,11.60
2017-09-16T19:54:30.560Z,11.60
2017-09-16T19:56:58.205Z,11.60
2017-09-16T19:59:26.577Z,11.30
2017-09-16T20:01:54.951Z,11.60
2017-09-16T20:04:23.313Z,11.70
2017-09-16T20:06:51.715Z,11.60
2017-09-16T20:09:20.048Z,11.60
2017-09-16T20:11:47.687Z,11.60
2017-09-16T20:14:15.260Z,11.70
2017-09-16T20:16:42.826Z,11.70
2017-09-16T20:19:10.417Z,11.60
2017-09-16T20:21:38.822Z,11.60
2017-09-16T20:24:06.441Z,11.60
2017-09-16T20:26:34.011Z,11.80
2017-09-16T20:29:01.564Z,11.90
2017-09-16T20:31:29.192Z,11.60
2017-09-16T20:33:56.780Z,11.60
2017-09-16T20:36:24.347Z,11.60
2017-09-16T20:38:51.974Z,11.50
2017-09-16T20:41:19.551Z,11.30
2017-09-16T20:43:47.127Z,11.40
2017-09-16T20:46:14.735Z,11.50
2017-09-16T20:48:42.357Z,11.40
2017-09-16T20:51:09.927Z,11.30
2017-09-16T20:53:37.561Z,11.30
2017-09-16T20:56:05.134Z,11.20
2017-09-16T20:58:32.694Z,11.10
2017-09-16T21:01:00.289Z,11.00
2017-09-16T21:03:28.629Z,10.90
2017-09-16T21:05:56.236Z,10.90
2017-09-16T21:08:23.823Z,11.10
2017-09-16T21:10:51.405Z,10.90
2017-09-16T21:13:19.024Z,10.70
2017-09-16T21:15:46.621Z,10.70
2017-09-16T21:18:14.182Z,10.80
2017-09-16T21:20:41.821Z,10.90
2017-09-16T21:23:09.414Z,10.70
2017-09-16T21:25:37.022Z,10.50
2017-09-16T21:28:04.580Z,10.50
2017-09-16T21:30:32.941Z,10.50
2017-09-16T21:33:01.321Z,10.80
2017-09-16T21:35:28.880Z,10.80
2017-09-16T21:37:56.489Z,10.80
2017-09-16T21:40:24.061Z,10.80
2017-09-16T21:42:51.625Z,10.90
2017-09-16T21:45:19.247Z,10.80
2017-09-16T21:47:46.805Z,10.90
2017-09-16T21:50:15.124Z,10.60
2017-09-16T21:52:42.729Z,10.60
2017-09-16T21:55:11.069Z,10.60
2017-09-16T21:57:38.638Z,10.60
2017-09-16T22:00:06.250Z,10.50
2017-09-16T22:02:33.811Z,10.40
2017-09-16T22:05:01.427Z,10.50
2017-09-16T22:07:29.047Z,10.40
2017-09-16T22:09:56.606Z,10.40
2017-09-16T22:12:24.198Z,10.50
2017-09-16T22:14:51.768Z,10.30
2017-09-16T22:17:19.370Z,10.20
2017-09-16T22:19:46.976Z,10.30
2017-09-16T22:22:14.532Z,10.40
2017-09-16T22:24:42.087Z,10.40
2017-09-16T22:27:09.694Z,10.50
2017-09-16T22:29:38.013Z,10.00
2017-09-16T22:32:05.584Z,10.00
2017-09-16T22:34:33.954Z,10.10
2017-09-16T22:37:01.522Z,10.10
2017-09-16T22:39:29.146Z,10.30
2017-09-16T22:41:57.470Z,10.30
2017-09-16T22:44:25.044Z,10.40
2017-09-16T22:46:52.670Z,10.10
2017-09-16T22:49:20.229Z,9.20
2017-09-16T22:51:47.804Z,10.20
2017-09-16T22:54:15.429Z,10.10
2017-09-16T22:56:43.800Z,10.30
2017-09-16T22:59:12.178Z,10.30
2017-09-16T23:01:40.510Z,10.40
2017-09-16T23:04:08.097Z,10.30
2017-09-16T23:06:35.700Z,10.40
2017-09-16T23:09:03.282Z,10.50
2017-09-16T23:11:30.849Z,10.50
2017-09-16T23:13:58.494Z,10.50
2017-09-16T23:16:26.060Z,10.40
2017-09-16T23:18:53.608Z,10.30
2017-09-16T23:21:21.204Z,10.40
2017-09-16T23:23:48.806Z,10.30
2017-09-16T23:26:17.186Z,10.20
2017-09-16T23:28:45.525Z,10.20
2017-09-16T23:31:13.095Z,10.20
2017-09-16T23:33:40.723Z,10.30
2017-09-16T23:36:09.062Z,10.40
2017-09-16T23:38:37.409Z,10.20
2017-09-16T23:41:05.044Z,10.10
2017-09-16T23:43:32.610Z,10.20
2017-09-16T23:46:00.199Z,10.10
2017-09-16T23:48:27.830Z,9.90
2017-09-16T23:50:55.409Z,9.90
2017-09-16T23:53:22.964Z,9.70
2017-09-16T23:55:50.562Z,9.80
2017-09-16T23:58:18.890Z,10.00
